Time;durP1;ratioP1;P1;durP2;ratioP2;P2;SDS_P1;SDS_P2;PMS_P1;PMS_P2;Temp;Humidity;BMP_temperature;BMP_pressure;BME280_temperature;BME280_humidity;BME280_pressure;Samples;Min_cycle;Max_cycle;Signal;HPM_P1;HPM_P2
2022/06/13 00:00:56;;;;;;;11.80;4.20;;;;;;;12.88;91.64;99911.98;105400;1265;69405;-68
2022/06/13 00:03:43;;;;;;;14.00;4.50;;;;;;;12.88;91.25;99911.97;105346;1265;73574;-65
2022/06/13 00:06:30;;;;;;;15.80;4.30;;;;;;;12.88;91.08;99913.06;105338;1265;59758;-69
2022/06/13 00:09:16;;;;;;;13.90;3.80;;;;;;;12.86;90.74;99910.21;105332;1265;59942;-67
2022/06/13 00:12:04;;;;;;;12.50;4.30;;;;;;;12.85;91.09;99907.06;105243;1265;72840;-67
2022/06/13 00:14:51;;;;;;;13.20;4.20;;;;;;;12.85;91.06;99906.36;107508;1265;68679;-65
2022/06/13 00:17:37;;;;;;;10.90;3.90;;;;;;;12.82;90.88;99901.97;107979;1265;71706;-72
2022/06/13 00:20:25;;;;;;;12.30;4.40;;;;;;;12.81;90.99;99898.73;107187;1265;59624;-67
2022/06/13 00:23:11;;;;;;;11.50;3.70;;;;;;;12.79;90.83;99894.40;107456;1265;59570;-70
2022/06/13 00:25:58;;;;;;;11.10;3.70;;;;;;;12.77;90.40;99895.30;106099;1265;74675;-69
2022/06/13 00:28:45;;;;;;;11.60;3.80;;;;;;;12.76;90.06;99899.00;105377;1265;69417;-69
2022/06/13 00:31:32;;;;;;;11.90;3.70;;;;;;;12.74;89.60;99895.63;105239;1265;73464;-69
2022/06/13 00:34:19;;;;;;;10.80;3.30;;;;;;;12.71;89.61;99886.83;105305;1265;59640;-70
2022/06/13 00:37:06;;;;;;;13.00;3.60;;;;;;;12.69;89.60;99887.70;105443;1265;60395;-71
2022/06/13 00:39:53;;;;;;;13.20;3.80;;;;;;;12.67;89.50;99887.13;105450;1265;73625;-69
2022/06/13 00:42:41;;;;;;;10.90;3.50;;;;;;;12.68;89.34;99883.33;105230;1265;66890;-72
2022/06/13 00:45:34;;;;;;;10.50;3.60;;;;;;;12.68;89.61;99883.14;105732;1265;71506;-70
2022/06/13 00:48:28;;;;;;;11.10;3.50;;;;;;;12.67;89.69;99882.48;105526;1265;59547;-69
2022/06/13 00:51:15;;;;;;;12.10;4.00;;;;;;;12.65;89.46;99876.87;105244;1265;60499;-69
2022/06/13 00:54:02;;;;;;;9.90;3.30;;;;;;;12.63;89.46;99874.02;105246;1265;72485;-71
2022/06/13 00:56:50;;;;;;;11.50;3.90;;;;;;;12.58;89.67;99870.10;105201;1265;66790;-71
2022/06/13 00:59:37;;;;;;;11.70;3.90;;;;;;;12.55;89.58;99866.64;105360;1265;73900;-68
2022/06/13 01:02:24;;;;;;;12.50;3.40;;;;;;;12.54;88.79;99866.98;105235;1265;59688;-69
2022/06/13 01:05:15;;;;;;;11.50;3.40;;;;;;;12.54;88.40;99863.01;105410;1264;60777;-67
2022/06/13 01:08:06;;;;;;;9.40;3.40;;;;;;;12.54;88.10;99862.78;105323;1265;73627;-70
2022/06/13 01:11:18;;;;;;;11.30;3.50;;;;;;;12.56;88.61;99868.36;105310;1265;67685;-68
2022/06/13 01:14:27;;;;;;;12.30;3.60;;;;;;;12.55;88.29;99869.54;105224;1265;73174;-68
2022/06/13 01:17:41;;;;;;;9.50;2.90;;;;;;;12.53;88.43;99866.67;105282;1265;59539;-67
2022/06/13 01:20:53;;;;;;;11.60;3.30;;;;;;;12.52;87.83;99863.55;105529;1265;59653;-68
2022/06/13 01:24:31;;;;;;;11.90;3.20;;;;;;;12.50;86.98;99860.76;105465;1265;73697;-67
2022/06/13 01:28:04;;;;;;;10.50;3.40;;;;;;;12.46;86.88;99855.77;105590;1268;68383;-67
2022/06/13 01:31:25;;;;;;;9.40;3.20;;;;;;;12.42;87.02;99855.70;105372;1268;72790;-70
2022/06/13 01:34:28;;;;;;;12.80;3.10;;;;;;;12.39;86.78;99855.39;105341;1264;60705;-68
2022/06/13 01:37:26;;;;;;;13.90;3.40;;;;;;;12.38;86.24;99850.42;105474;1265;61036;-67
2022/06/13 01:40:28;;;;;;;11.00;3.10;;;;;;;12.35;86.33;99850.13;105430;1267;73079;-67
2022/06/13 01:43:52;;;;;;;10.80;2.90;;;;;;;12.33;86.61;99854.52;105297;1265;66811;-68
2022/06/13 01:47:09;;;;;;;11.20;2.90;;;;;;;12.29;86.31;99850.15;105267;1265;73465;-67
2022/06/13 01:50:09;;;;;;;11.90;2.60;;;;;;;12.25;86.03;99843.34;105484;1265;59610;-68
2022/06/13 01:53:34;;;;;;;9.20;3.40;;;;;;;12.23;85.82;99845.63;105389;1265;62051;-68
2022/06/13 01:56:34;;;;;;;11.60;3.10;;;;;;;12.20;85.80;99845.56;105387;1265;74671;-69
2022/06/13 01:59:38;;;;;;;9.20;3.10;;;;;;;12.16;85.65;99845.54;105639;1264;69605;-67
2022/06/13 02:02:27;;;;;;;9.60;3.10;;;;;;;12.11;85.43;99848.13;105644;1265;72598;-68
2022/06/13 02:05:24;;;;;;;10.10;3.10;;;;;;;12.08;86.04;99851.08;105426;1265;61111;-69
2022/06/13 02:08:22;;;;;;;8.30;3.10;;;;;;;12.06;86.51;99847.52;105312;1265;60337;-69
2022/06/13 02:11:21;;;;;;;10.50;3.40;;;;;;;12.05;86.09;99840.09;105261;1265;73548;-68
2022/06/13 02:14:45;;;;;;;9.50;2.70;;;;;;;12.07;85.81;99834.24;105594;1265;68692;-69
2022/06/13 02:17:39;;;;;;;11.40;2.90;;;;;;;12.07;85.76;99829.25;105334;1265;73161;-69
2022/06/13 02:20:36;;;;;;;13.50;3.30;;;;;;;12.05;85.93;99832.79;105460;1265;59784;-68
2022/06/13 02:23:29;;;;;;;12.00;3.30;;;;;;;12.02;86.25;99832.21;105280;1265;60531;-67
2022/06/13 02:26:25;;;;;;;10.10;3.20;;;;;;;12.00;86.76;99832.73;105619;1265;72398;-69
2022/06/13 02:29:32;;;;;;;11.90;3.50;;;;;;;11.97;86.77;99825.55;105402;1264;68688;-70
2022/06/13 02:32:29;;;;;;;8.80;3.00;;;;;;;11.93;86.69;99820.48;105371;1265;74290;-71
2022/06/13 02:35:23;;;;;;;11.10;3.00;;;;;;;11.92;86.61;99822.31;105352;1265;59704;-72
2022/06/13 02:38:27;;;;;;;12.20;3.30;;;;;;;11.93;86.84;99825.29;105391;1265;60637;-69
2022/06/13 02:41:20;;;;;;;8.90;2.80;;;;;;;11.97;87.15;99816.13;105324;1265;72474;-67
2022/06/13 02:44:25;;;;;;;12.90;3.50;;;;;;;11.98;87.03;99814.55;105245;1265;67981;-68
2022/06/13 02:47:28;;;;;;;9.30;3.30;;;;;;;12.00;86.94;99814.38;105376;1265;73313;-67
2022/06/13 02:50:25;;;;;;;9.50;2.90;;;;;;;12.03;87.21;99819.49;105226;1265;60046;-69
2022/06/13 02:53:37;;;;;;;9.80;3.40;;;;;;;12.05;87.40;99818.44;105240;1265;60606;-68
2022/06/13 03:00:11;;;;;;;12.40;3.40;;;;;;;12.10;87.95;99820.44;104922;1271;69635;-69
2022/06/13 03:03:41;;;;;;;11.60;3.30;;;;;;;12.15;87.96;99818.83;105061;1271;74562;-67
2022/06/13 03:06:43;;;;;;;12.30;3.40;;;;;;;12.20;88.25;99820.79;105170;1271;61494;-67
2022/06/13 03:09:43;;;;;;;11.80;3.10;;;;;;;12.31;88.36;99819.39;105493;1271;62296;-68
2022/06/13 03:13:00;;;;;;;10.20;3.00;;;;;;;12.42;88.12;99814.25;105095;1271;73620;-71
2022/06/13 03:15:56;;;;;;;10.60;3.20;;;;;;;12.55;87.74;99810.95;104835;1273;69590;-72
2022/06/13 03:18:50;;;;;;;12.40;3.60;;;;;;;12.69;87.64;99805.13;104863;1272;71702;-71
2022/06/13 03:21:52;;;;;;;11.50;3.20;;;;;;;12.81;87.32;99801.33;104972;1271;59763;-73
2022/06/13 03:25:18;;;;;;;11.20;3.30;;;;;;;12.92;87.04;99796.92;105080;1271;60222;-72
2022/06/13 03:28:28;;;;;;;10.00;3.00;;;;;;;13.03;86.76;99796.99;105175;1271;71944;-71
2022/06/13 03:31:57;;;;;;;12.60;3.20;;;;;;;13.11;86.55;99796.06;105207;1271;68518;-72
2022/06/13 03:34:52;;;;;;;11.20;2.90;;;;;;;13.17;85.92;99791.65;105965;1265;73520;-68
2022/06/13 03:37:50;;;;;;;10.90;3.00;;;;;;;13.22;86.01;99789.38;107745;1265;58645;-71
2022/06/13 03:40:41;;;;;;;10.90;3.00;;;;;;;13.29;85.70;99788.36;107873;1264;60344;-73
2022/06/13 03:43:44;;;;;;;10.90;3.10;;;;;;;13.38;85.54;99785.05;107536;1265;74724;-73
2022/06/13 03:47:08;;;;;;;12.70;3.50;;;;;;;13.47;85.25;99783.20;105925;1265;66907;-71
2022/06/13 03:50:02;;;;;;;11.40;2.90;;;;;;;13.56;84.72;99780.92;105219;1265;74315;-71
2022/06/13 03:53:02;;;;;;;11.70;3.00;;;;;;;13.62;84.24;99775.30;105307;1265;60308;-73
2022/06/13 03:56:20;;;;;;;9.60;3.00;;;;;;;13.68;83.86;99766.20;105327;1265;60807;-74
2022/06/13 03:59:25;;;;;;;11.40;3.10;;;;;;;13.73;83.41;99764.98;105283;1265;75464;-72
2022/06/13 04:02:15;;;;;;;11.10;3.50;;;;;;;13.78;83.27;99761.65;105342;1265;68793;-70
2022/06/13 04:05:02;;;;;;;9.30;3.30;;;;;;;13.85;83.05;99764.10;105417;1265;71537;-72
2022/06/13 04:07:49;;;;;;;11.00;3.30;;;;;;;13.88;83.03;99771.09;105708;1265;60480;-73
2022/06/13 04:11:11;;;;;;;14.90;3.40;;;;;;;13.91;83.28;99772.59;105368;1265;60978;-70
2022/06/13 04:14:26;;;;;;;10.00;3.00;;;;;;;13.96;83.32;99767.98;105019;1270;73253;-71
2022/06/13 04:17:20;;;;;;;12.00;3.20;;;;;;;14.05;82.96;99765.05;105211;1270;66511;-71
2022/06/13 04:21:05;;;;;;;12.10;3.80;;;;;;;14.19;82.50;99762.07;104960;1270;74366;-73
2022/06/13 04:24:26;;;;;;;10.50;3.10;;;;;;;14.49;81.71;99767.53;104530;1276;60483;-69
2022/06/13 04:27:29;;;;;;;13.80;3.30;;;;;;;14.74;80.45;99775.23;104341;1276;60579;-70
2022/06/13 04:30:24;;;;;;;15.40;3.80;;;;;;;14.84;79.74;99777.96;104626;1276;74432;-68
2022/06/13 04:33:26;;;;;;;12.60;3.20;;;;;;;14.94;79.54;99779.43;104667;1276;68071;-70
2022/06/13 04:36:15;;;;;;;10.40;3.10;;;;;;;15.06;79.42;99774.70;104530;1276;72417;-70
2022/06/13 04:39:08;;;;;;;12.30;3.10;;;;;;;15.11;78.56;99769.35;104432;1276;60407;-71
2022/06/13 04:41:57;;;;;;;10.50;2.70;;;;;;;15.20;78.63;99767.27;104389;1277;60362;-69
2022/06/13 04:44:45;;;;;;;10.70;2.80;;;;;;;15.28;78.20;99761.70;104552;1273;75656;-70
2022/06/13 04:47:33;;;;;;;13.90;3.30;;;;;;;15.34;78.14;99764.69;104713;1273;69711;-69
2022/06/13 04:50:32;;;;;;;11.90;3.20;;;;;;;15.36;78.16;99759.34;105289;1273;74559;-70
2022/06/13 04:53:55;;;;;;;14.50;3.20;;;;;;;15.42;78.02;99755.15;104974;1273;61374;-70
2022/06/13 04:56:41;;;;;;;11.80;3.30;;;;;;;15.46;78.04;99760.33;104949;1273;60796;-70
2022/06/13 04:59:29;;;;;;;13.60;3.30;;;;;;;15.48;77.84;99762.70;105357;1268;74527;-69
2022/06/13 05:02:23;;;;;;;10.70;3.10;;;;;;;15.50;77.94;99760.57;105228;1265;66953;-71
2022/06/13 05:05:39;;;;;;;10.40;3.20;;;;;;;15.52;77.94;99756.42;105133;1268;74384;-70
2022/06/13 05:08:32;;;;;;;13.80;2.80;;;;;;;15.49;77.64;99759.92;105280;1265;60628;-69
2022/06/13 05:11:28;;;;;;;9.80;2.80;;;;;;;15.45;77.80;99763.04;105563;1265;60335;-71
2022/06/13 05:14:59;;;;;;;13.30;3.30;;;;;;;15.44;77.97;99764.92;105320;1268;73202;-70
2022/06/13 05:18:04;;;;;;;26.70;16.60;;;;;;;15.48;78.81;99763.09;105297;1265;68568;-71
2022/06/13 05:21:19;;;;;;;10.80;4.00;;;;;;;15.57;77.98;99762.91;105316;1265;72404;-71
2022/06/13 05:24:17;;;;;;;11.10;4.00;;;;;;;15.52;77.32;99761.61;105441;1265;61257;-68
2022/06/13 05:27:06;;;;;;;14.30;5.60;;;;;;;15.45;77.30;99762.84;105348;1265;60347;-76
2022/06/13 05:29:53;;;;;;;13.20;4.30;;;;;;;15.38;77.36;99765.58;105394;1268;74711;-76
2022/06/13 05:32:42;;;;;;;11.90;4.00;;;;;;;15.33;78.01;99770.48;106340;1265;66217;-76
2022/06/13 05:35:35;;;;;;;12.90;3.50;;;;;;;15.29;78.18;99779.84;105804;1265;72691;-76
2022/06/13 05:38:36;;;;;;;11.40;3.70;;;;;;;15.28;78.64;99787.00;105959;1265;60441;-76
2022/06/13 05:41:23;;;;;;;10.70;3.10;;;;;;;15.24;79.24;99797.38;106207;1265;60447;-78
2022/06/13 05:44:09;;;;;;;10.70;3.00;;;;;;;15.16;80.06;99794.68;105731;1268;74466;-77
2022/06/13 05:46:57;;;;;;;12.30;3.00;;;;;;;15.08;81.01;99792.88;105569;1266;67728;-78
2022/06/13 05:49:46;;;;;;;12.50;3.00;;;;;;;15.01;81.67;99784.84;105373;1268;73422;-76
2022/06/13 05:52:32;;;;;;;13.50;4.00;;;;;;;15.03;81.66;99793.80;105574;1265;60799;-78
2022/06/13 05:55:19;;;;;;;13.20;3.50;;;;;;;15.10;81.68;99794.09;105796;1265;60457;-76
2022/06/13 05:58:25;;;;;;;14.80;5.90;;;;;;;15.28;81.41;99801.10;105857;1265;73921;-78
2022/06/13 06:01:14;;;;;;;23.40;10.80;;;;;;;15.51;81.28;99799.79;105880;1265;67836;-77
2022/06/13 06:04:03;;;;;;;14.70;5.60;;;;;;;15.76;79.08;99806.95;105683;1265;72417;-78
2022/06/13 06:06:51;;;;;;;14.10;3.90;;;;;;;15.99;77.55;99806.91;106483;1265;60447;-77
2022/06/13 06:09:38;;;;;;;14.30;3.50;;;;;;;16.20;76.00;99810.80;106003;1265;61544;-77
2022/06/13 06:12:24;;;;;;;24.80;12.80;;;;;;;16.41;75.91;99812.92;106106;1265;74115;-78
2022/06/13 06:15:11;;;;;;;12.90;4.60;;;;;;;16.52;74.98;99810.23;105875;1265;67549;-76
2022/06/13 06:17:58;;;;;;;14.30;4.00;;;;;;;16.63;74.05;99807.16;105987;1265;74278;-77
2022/06/13 06:20:45;;;;;;;8.80;3.10;;;;;;;16.69;73.56;99805.42;105944;1265;60853;-78
2022/06/13 06:23:31;;;;;;;10.20;3.20;;;;;;;16.68;73.16;99803.48;105664;1265;61118;-78
2022/06/13 06:26:22;;;;;;;9.40;2.60;;;;;;;16.72;73.48;99804.02;105763;1265;74584;-77
2022/06/13 06:29:11;;;;;;;9.90;2.80;;;;;;;16.77;73.37;99801.67;105662;1265;67076;-77
2022/06/13 06:31:57;;;;;;;10.10;3.80;;;;;;;16.82;72.44;99797.61;106095;1265;74408;-76
2022/06/13 06:34:44;;;;;;;12.20;2.90;;;;;;;16.87;71.36;99795.98;106507;1265;60550;-79
2022/06/13 06:37:31;;;;;;;10.00;2.50;;;;;;;16.95;70.99;99794.70;106186;1265;61451;-76
2022/06/13 06:40:25;;;;;;;14.20;2.90;;;;;;;17.08;70.48;99789.46;106129;1265;73092;-75
2022/06/13 06:43:12;;;;;;;10.10;2.70;;;;;;;17.13;70.03;99787.95;105877;1265;68563;-76
2022/06/13 06:45:59;;;;;;;11.00;4.10;;;;;;;17.15;69.79;99789.89;105751;1265;73516;-76
2022/06/13 06:48:46;;;;;;;10.90;2.80;;;;;;;17.11;69.71;99787.81;105611;1265;60543;-76
2022/06/13 06:51:33;;;;;;;11.10;2.80;;;;;;;17.02;69.11;99782.13;105965;1265;62050;-76
2022/06/13 07:00:31;;;;;;;9.70;2.70;;;;;;;16.76;70.14;99784.11;108242;1265;71616;-75
2022/06/13 07:03:20;;;;;;;7.70;2.00;;;;;;;16.73;70.57;99784.08;107837;1265;60639;-77
2022/06/13 07:06:08;;;;;;;9.40;2.70;;;;;;;16.72;70.35;99777.02;107656;1265;59493;-78
2022/06/13 07:08:55;;;;;;;9.00;2.80;;;;;;;16.76;70.73;99773.66;106842;1265;72883;-77
2022/06/13 07:11:55;;;;;;;9.30;3.10;;;;;;;16.85;70.41;99774.27;106195;1265;69570;-80
2022/06/13 07:14:41;;;;;;;10.20;2.60;;;;;;;16.90;69.73;99775.31;105368;1270;74759;-77
2022/06/13 07:17:28;;;;;;;9.50;2.80;;;;;;;16.85;69.28;99771.58;105840;1268;60889;-77
2022/06/13 07:20:16;;;;;;;10.60;2.60;;;;;;;16.78;69.32;99770.61;105827;1268;60817;-77
2022/06/13 07:23:03;;;;;;;11.10;2.70;;;;;;;16.71;69.41;99773.50;105604;1267;74875;-77
2022/06/13 07:25:50;;;;;;;10.00;3.20;;;;;;;16.60;69.51;99767.50;105560;1268;66696;-74
2022/06/13 07:28:37;;;;;;;10.20;2.60;;;;;;;16.46;69.56;99765.29;105833;1265;74306;-80
2022/06/13 07:31:44;;;;;;;9.70;3.00;;;;;;;16.32;69.84;99763.01;105616;1265;60469;-80
2022/06/13 07:34:34;;;;;;;9.60;2.40;;;;;;;16.16;70.26;99764.48;105557;1265;62009;-77
2022/06/13 07:40:31;;;;;;;9.60;2.90;;;;;;;15.97;72.10;99766.66;105753;1267;69422;-79
2022/06/13 07:43:29;;;;;;;7.90;2.70;;;;;;;15.92;72.85;99763.75;105536;1265;73365;-77
2022/06/13 07:46:21;;;;;;;9.00;2.70;;;;;;;15.92;74.21;99761.80;105396;1265;60552;-79
2022/06/13 07:49:08;;;;;;;10.50;2.80;;;;;;;15.94;74.71;99757.71;105839;1265;60367;-78
2022/06/13 07:51:56;;;;;;;8.50;2.80;;;;;;;15.93;74.54;99754.96;105853;1265;73361;-82
2022/06/13 07:54:43;;;;;;;8.90;2.60;;;;;;;15.97;74.94;99753.98;105797;1265;68044;-80
2022/06/13 07:57:30;;;;;;;10.50;2.60;;;;;;;16.05;75.22;99750.24;105471;1265;72800;-79
2022/06/13 08:00:31;;;;;;;9.30;2.10;;;;;;;16.11;74.09;99749.60;105516;1265;60456;-80
2022/06/13 08:03:25;;;;;;;8.10;2.90;;;;;;;16.23;73.43;99746.55;105646;1265;60312;-78
2022/06/13 08:06:12;;;;;;;7.90;2.10;;;;;;;16.39;72.28;99741.50;105526;1265;74119;-78
2022/06/13 08:08:59;;;;;;;8.40;2.40;;;;;;;16.57;72.40;99741.84;105457;1265;69692;-77
2022/06/13 08:11:52;;;;;;;8.70;2.20;;;;;;;16.87;71.14;99735.45;105968;1267;74752;-77
2022/06/13 08:14:39;;;;;;;7.60;1.80;;;;;;;17.15;68.10;99736.49;106005;1265;60435;-79
2022/06/13 08:17:26;;;;;;;6.70;1.80;;;;;;;17.53;67.25;99735.99;105900;1265;60591;-78
2022/06/13 08:20:12;;;;;;;7.80;1.90;;;;;;;17.86;64.24;99730.19;106138;1265;74546;-77
2022/06/13 08:23:00;;;;;;;6.40;1.70;;;;;;;18.01;62.66;99729.10;105766;1265;68492;-77
2022/06/13 08:25:49;;;;;;;6.90;2.10;;;;;;;18.74;62.18;99730.33;105289;1265;73776;-78
2022/06/13 08:28:36;;;;;;;6.40;1.70;;;;;;;20.89;56.19;99711.25;105705;1265;60538;-79
2022/06/13 08:31:24;;;;;;;17.20;10.30;;;;;;;22.83;50.31;99705.87;105854;1265;60409;-78
2022/06/13 08:34:10;;;;;;;9.00;2.30;;;;;;;23.67;47.38;99708.54;105865;1265;72832;-80
2022/06/13 08:36:57;;;;;;;7.90;2.30;;;;;;;24.32;44.75;99705.23;105504;1265;67947;-79
2022/06/13 08:39:44;;;;;;;8.90;3.10;;;;;;;25.59;42.31;99703.23;105609;1265;73225;-78
2022/06/13 08:43:23;;;;;;;7.80;1.50;;;;;;;26.73;39.41;99705.39;105443;1267;60392;-79
2022/06/13 08:46:43;;;;;;;9.10;1.60;;;;;;;27.00;38.37;99709.23;106034;1265;62139;-76
2022/06/13 08:49:36;;;;;;;9.50;1.90;;;;;;;27.39;37.43;99700.77;105617;1265;74590;-79
2022/06/13 08:52:36;;;;;;;8.00;1.50;;;;;;;27.45;36.61;99703.45;105553;1265;68443;-79
2022/06/13 08:55:48;;;;;;;8.00;1.30;;;;;;;27.11;36.90;99713.26;105597;1265;74765;-74
2022/06/13 08:58:37;;;;;;;7.50;1.60;;;;;;;26.21;38.99;99710.38;105137;1266;60493;-76
2022/06/13 09:01:40;;;;;;;8.50;1.90;;;;;;;25.58;39.49;99709.91;105506;1265;60818;-76
2022/06/13 09:04:37;;;;;;;7.70;1.60;;;;;;;25.26;40.19;99700.04;105239;1265;75443;-78
2022/06/13 09:07:59;;;;;;;7.80;1.80;;;;;;;25.65;39.67;99693.87;105358;1266;66673;-75
2022/06/13 09:11:23;;;;;;;8.30;1.70;;;;;;;26.42;38.77;99690.20;105313;1267;71887;-77
2022/06/13 09:14:43;;;;;;;8.00;1.80;;;;;;;26.84;37.73;99684.34;105474;1265;60552;-77
2022/06/13 09:17:43;;;;;;;8.50;1.70;;;;;;;27.48;37.02;99685.57;105453;1268;60404;-76
2022/06/13 09:20:37;;;;;;;8.50;1.90;;;;;;;27.25;36.64;99689.40;105372;1265;74527;-77
2022/06/13 09:23:47;;;;;;;7.80;2.50;;;;;;;26.76;37.58;99684.64;105388;1265;68461;-75
2022/06/13 09:26:46;;;;;;;8.00;1.80;;;;;;;26.25;38.14;99681.80;105549;1265;73394;-76
2022/06/13 09:30:10;;;;;;;7.70;1.80;;;;;;;25.67;38.83;99677.38;105641;1265;60408;-75
2022/06/13 09:33:07;;;;;;;9.40;2.00;;;;;;;25.15;39.91;99673.45;105515;1265;60895;-77
2022/06/13 09:36:03;;;;;;;7.20;1.60;;;;;;;24.61;41.01;99672.37;105589;1265;74963;-75
2022/06/13 09:39:10;;;;;;;7.70;2.20;;;;;;;24.20;42.10;99666.08;105451;1265;69657;-77
2022/06/13 09:42:18;;;;;;;9.20;2.60;;;;;;;23.89;43.06;99660.45;105356;1265;73319;-77
2022/06/13 09:45:29;;;;;;;8.10;2.20;;;;;;;24.06;43.69;99661.34;105567;1265;60796;-76
2022/06/13 09:48:50;;;;;;;6.60;1.70;;;;;;;25.26;40.95;99653.54;105409;1265;60949;-76
2022/06/13 09:52:06;;;;;;;10.50;2.20;;;;;;;25.88;39.11;99649.70;105230;1265;75310;-75
2022/06/13 09:55:29;;;;;;;8.30;1.90;;;;;;;25.42;40.20;99653.23;105412;1265;66807;-79
2022/06/13 09:58:43;;;;;;;7.90;1.80;;;;;;;25.21;40.09;99656.16;105563;1265;74979;-78
2022/06/13 10:01:39;;;;;;;8.60;1.90;;;;;;;24.88;40.66;99651.83;106354;1265;60541;-79
2022/06/13 10:04:59;;;;;;;7.10;1.60;;;;;;;24.73;41.27;99648.57;105723;1265;61265;-78
2022/06/13 10:08:00;;;;;;;9.40;2.10;;;;;;;24.95;40.41;99641.92;105440;1265;74595;-75
2022/06/13 10:11:31;;;;;;;7.70;1.50;;;;;;;25.17;39.42;99635.80;105512;1265;66771;-78
2022/06/13 10:15:09;;;;;;;10.60;1.90;;;;;;;25.46;38.57;99631.73;105580;1265;74324;-77
2022/06/13 10:18:25;;;;;;;9.10;1.80;;;;;;;25.46;37.74;99629.46;105385;1268;60377;-77
2022/06/13 10:21:26;;;;;;;8.80;2.00;;;;;;;24.88;37.65;99630.55;105441;1265;60443;-77
2022/06/13 10:24:25;;;;;;;7.90;3.40;;;;;;;24.36;38.97;99632.92;105587;1265;75837;-80
2022/06/13 10:27:34;;;;;;;8.10;2.10;;;;;;;23.79;39.92;99639.30;105516;1265;68102;-76
2022/06/13 10:30:49;;;;;;;20.50;10.10;;;;;;;23.21;41.69;99643.23;105330;1265;72321;-80
2022/06/13 10:33:53;;;;;;;10.40;4.50;;;;;;;22.56;43.31;99670.81;105444;1267;60565;-76
2022/06/13 10:36:54;;;;;;;7.80;2.50;;;;;;;21.57;47.02;99671.96;105362;1265;60998;-75
2022/06/13 10:39:42;;;;;;;7.30;1.80;;;;;;;20.38;48.20;99673.34;105195;1265;75818;-78
2022/06/13 10:42:31;;;;;;;7.50;1.70;;;;;;;19.58;49.92;99669.80;105512;1268;69654;-74
2022/06/13 10:45:19;;;;;;;6.80;1.80;;;;;;;18.86;53.30;99671.05;105187;1265;73246;-74
2022/06/13 10:48:13;;;;;;;7.70;1.70;;;;;;;18.07;57.64;99683.41;105440;1265;60453;-75
2022/06/13 10:51:04;;;;;;;7.40;1.50;;;;;;;17.39;61.35;99685.41;105162;1267;62097;-76
2022/06/13 10:54:10;;;;;;;9.30;1.90;;;;;;;16.81;63.73;99679.66;105401;1265;74578;-78
2022/06/13 10:57:06;;;;;;;6.70;1.40;;;;;;;16.09;67.05;99686.81;105379;1265;66472;-76
2022/06/13 11:00:14;;;;;;;8.30;1.60;;;;;;;15.52;68.29;99681.77;105287;1268;74489;-76
2022/06/13 11:03:17;;;;;;;5.50;1.40;;;;;;;15.15;70.67;99684.48;105497;1265;60453;-77
2022/06/13 11:06:07;;;;;;;8.10;1.40;;;;;;;14.85;72.98;99688.61;105332;1265;61145;-78
2022/06/13 11:09:04;;;;;;;8.20;1.80;;;;;;;14.58;75.35;99698.77;105491;1265;74932;-76
2022/06/13 11:11:59;;;;;;;7.30;1.80;;;;;;;14.42;77.48;99706.45;105593;1265;67945;-74
2022/06/13 11:25:20;;;;;;;10.40;2.70;;;;;;;14.32;85.91;99730.59;105412;1265;75526;-78
2022/06/13 11:28:15;;;;;;;7.30;2.70;;;;;;;14.37;85.49;99733.38;105184;1265;69440;-78
2022/06/13 11:31:25;;;;;;;9.60;2.80;;;;;;;14.38;85.29;99729.85;105386;1265;71767;-81
2022/06/13 11:34:30;;;;;;;10.50;2.50;;;;;;;14.44;85.45;99731.52;105602;1265;60491;-79
2022/06/13 11:37:23;;;;;;;12.30;2.90;;;;;;;14.54;84.69;99732.34;105427;1265;60819;-74
2022/06/13 11:40:17;;;;;;;12.00;3.10;;;;;;;14.65;84.62;99735.60;105263;1268;74625;-76
2022/06/13 11:43:04;;;;;;;9.80;2.50;;;;;;;14.71;84.71;99735.95;105156;1268;68373;-75
2022/06/13 11:45:57;;;;;;;12.00;3.60;;;;;;;14.77;84.99;99740.86;105603;1265;73710;-76
2022/06/13 11:48:50;;;;;;;11.10;2.90;;;;;;;14.82;84.73;99742.52;105353;1265;61052;-78
2022/06/13 11:52:09;;;;;;;11.00;4.20;;;;;;;14.86;84.69;99736.66;105113;1268;60556;-78
2022/06/13 11:54:56;;;;;;;12.90;2.80;;;;;;;14.94;84.64;99730.94;105696;1268;76216;-78
2022/06/13 11:57:51;;;;;;;24.80;13.80;;;;;;;14.94;83.89;99725.16;105575;1268;68722;-76
2022/06/13 12:00:52;;;;;;;11.90;3.40;;;;;;;15.02;84.22;99727.31;105207;1268;73368;-76
2022/06/13 12:03:46;;;;;;;10.20;2.80;;;;;;;15.04;84.49;99731.31;105239;1265;60373;-77
2022/06/13 12:06:43;;;;;;;13.90;3.60;;;;;;;15.02;84.09;99727.50;105678;1268;60510;-78
2022/06/13 12:09:33;;;;;;;10.60;2.90;;;;;;;15.02;84.08;99726.41;105231;1270;75586;-79
2022/06/13 12:12:20;;;;;;;10.80;2.70;;;;;;;15.02;84.06;99723.83;105287;1268;67795;-78
2022/06/13 12:15:12;;;;;;;12.10;3.50;;;;;;;15.06;84.52;99719.86;105331;1268;73299;-78
2022/06/13 12:18:45;;;;;;;8.80;3.50;;;;;;;15.20;84.63;99708.30;105249;1267;61195;-76
2022/06/13 12:22:07;;;;;;;12.10;3.30;;;;;;;15.60;83.71;99702.52;105792;1265;62690;-78
2022/06/13 12:25:30;;;;;;;11.60;3.70;;;;;;;16.22;82.56;99696.77;105337;1265;74868;-75
2022/06/13 12:28:23;;;;;;;11.10;3.10;;;;;;;17.03;81.00;99688.55;105302;1265;68685;-78
2022/06/13 12:31:24;;;;;;;9.00;3.00;;;;;;;17.59;78.45;99677.41;105283;1265;74300;-78
2022/06/13 12:34:37;;;;;;;13.10;3.30;;;;;;;18.18;76.11;99680.03;105528;1268;60571;-75
2022/06/13 12:37:45;;;;;;;10.00;2.90;;;;;;;18.41;72.01;99685.64;105491;1265;61086;-78
2022/06/13 12:41:03;;;;;;;13.10;3.30;;;;;;;18.28;72.45;99689.36;105163;1268;73642;-76
2022/06/13 12:43:55;;;;;;;11.70;3.50;;;;;;;17.97;71.85;99685.30;105592;1265;67203;-74
2022/06/13 12:46:49;;;;;;;9.80;3.20;;;;;;;17.67;73.15;99685.65;105315;1265;71953;-75
2022/06/13 12:50:01;;;;;;;12.10;3.20;;;;;;;17.39;74.37;99685.39;105328;1265;60598;-78
2022/06/13 12:53:17;;;;;;;10.20;3.50;;;;;;;17.09;75.27;99687.00;105418;1265;61462;-76
2022/06/13 12:56:32;;;;;;;13.00;3.30;;;;;;;16.92;76.98;99681.48;105445;1265;73744;-78
2022/06/13 12:59:46;;;;;;;12.20;3.20;;;;;;;17.05;75.91;99678.44;105246;1265;68329;-79
2022/06/13 13:03:33;;;;;;;11.00;2.80;;;;;;;17.44;76.04;99673.96;105367;1265;74367;-74
2022/06/13 13:06:59;;;;;;;11.20;2.70;;;;;;;17.89;73.49;99684.42;105246;1266;60367;-75
2022/06/13 13:10:28;;;;;;;11.10;2.80;;;;;;;18.23;72.34;99687.00;105452;1265;60415;-75
2022/06/13 13:14:15;;;;;;;11.10;2.90;;;;;;;18.38;71.98;99696.39;105965;1265;75440;-75
2022/06/13 13:17:20;;;;;;;10.30;3.40;;;;;;;18.43;69.28;99691.58;105294;1274;69688;-75
2022/06/13 13:20:52;;;;;;;10.40;2.60;;;;;;;18.55;68.23;99690.48;106530;1273;73238;-75
2022/06/13 13:24:20;;;;;;;7.90;2.70;;;;;;;18.50;68.45;99707.95;105626;1273;60594;-76
2022/06/13 13:27:13;;;;;;;11.30;3.30;;;;;;;18.24;69.43;99703.55;105200;1273;60562;-73
2022/06/13 13:30:20;;;;;;;10.40;2.70;;;;;;;18.11;70.32;99701.55;104773;1274;74443;-73
2022/06/13 13:34:10;;;;;;;11.00;2.60;;;;;;;17.87;70.27;99699.73;105075;1274;68824;-76
2022/06/13 13:37:00;;;;;;;9.70;2.70;;;;;;;17.62;69.73;99697.54;104987;1274;73821;-75
2022/06/13 13:39:58;;;;;;;10.30;2.70;;;;;;;17.62;70.50;99699.19;104768;1273;61168;-75
2022/06/13 13:43:11;;;;;;;9.10;2.20;;;;;;;17.89;70.14;99703.64;105346;1274;61123;-76
2022/06/13 13:46:47;;;;;;;8.30;2.20;;;;;;;18.11;66.32;99710.52;104791;1274;74605;-74
2022/06/13 13:49:43;;;;;;;7.60;2.10;;;;;;;18.09;64.59;99711.66;104838;1274;69618;-76
2022/06/13 13:52:38;;;;;;;9.80;2.10;;;;;;;18.06;63.78;99711.85;105005;1268;72519;-77
2022/06/13 13:56:13;;;;;;;9.20;1.80;;;;;;;18.06;62.55;99707.00;105112;1265;60470;-77
2022/06/13 13:59:02;;;;;;;8.00;1.90;;;;;;;17.96;61.25;99698.70;105495;1265;60341;-77
2022/06/13 14:01:57;;;;;;;7.90;2.00;;;;;;;17.88;62.06;99694.77;106642;1265;74540;-77
2022/06/13 14:04:59;;;;;;;7.70;2.20;;;;;;;17.78;61.57;99697.21;105963;1265;68490;-76
2022/06/13 14:08:29;;;;;;;8.40;2.20;;;;;;;17.61;61.26;99698.89;105740;1265;71999;-79
2022/06/13 14:11:16;;;;;;;9.60;2.20;;;;;;;17.44;61.53;99705.27;105303;1265;60480;-81
2022/06/13 14:14:07;;;;;;;7.90;1.80;;;;;;;17.35;61.26;99698.17;105298;1265;61369;-77